Time;durP1;ratioP1;P1;durP2;ratioP2;P2;SDS_P1;SDS_P2;PMS_P1;PMS_P2;Temp;Humidity;BMP_temperature;BMP_pressure;BME280_temperature;BME280_humidity;BME280_pressure;Samples;Min_cycle;Max_cycle;Signal;HPM_P1;HPM_P2
2022/12/30 00:00:57;;;;;;;62.65;36.92;;;;;;;;;;5049267;28;20419;-53
2022/12/30 00:03:24;;;;;;;48.30;32.33;;;;;;;;;;5048599;28;20103;-53
2022/12/30 00:05:50;;;;;;;34.00;21.55;;;;;;;;;;5046687;28;20045;-53
2022/12/30 00:11:00;;;;;;;66.60;22.08;;;;;;;;;;5022655;28;20033;-53
2022/12/30 00:33:20;;;;;;;8.75;5.32;;;10.50;99.90;;;;;;5069176;28;20047;-53
2022/12/30 00:35:46;;;;;;;6.22;3.60;;;10.40;99.90;;;;;;5052771;28;20114;-54
2022/12/30 00:38:11;;;;;;;5.88;3.70;;;10.40;99.90;;;;;;5068601;28;20028;-54
2022/12/30 00:40:37;;;;;;;6.45;3.33;;;10.40;99.90;;;;;;5069744;28;20032;-53
2022/12/30 00:43:09;;;;;;;5.47;3.63;;;10.50;99.90;;;;;;5035833;28;20052;-53
2022/12/30 00:45:44;;;;;;;5.00;3.35;;;10.70;99.90;;;;;;5034908;28;20533;-54
2022/12/30 00:56:22;;;;;;;4.35;2.67;;;11.10;99.90;;;;;;5053219;28;20435;-54
2022/12/30 00:58:48;;;;;;;5.10;3.22;;;11.20;99.90;;;;;;5017874;28;20037;-53
2022/12/30 01:01:13;;;;;;;4.75;2.80;;;11.20;99.90;;;;;;5052743;28;20033;-53
2022/12/30 01:03:39;;;;;;;6.00;2.65;;;11.20;99.90;;;;;;5064478;28;20074;-53
2022/12/30 01:06:09;;;;;;;5.20;2.58;;;11.30;99.90;;;;;;5054321;28;20167;-53
2022/12/30 01:08:35;;;;;;;5.43;2.70;;;11.30;99.90;;;;;;5072802;28;20029;-56
2022/12/30 01:11:08;;;;;;;4.05;2.95;;;11.40;99.90;;;;;;5072697;28;20036;-54
2022/12/30 01:13:35;;;;;;;3.78;2.60;;;11.40;99.90;;;;;;5073046;28;20028;-55
2022/12/30 01:16:13;;;;;;;4.80;3.03;;;11.20;99.90;;;;;;5072736;28;20051;-54
2022/12/30 01:18:39;;;;;;;2.90;2.10;;;11.10;99.90;;;;;;5072958;28;20376;-53
2022/12/30 01:21:06;;;;;;;4.22;2.50;;;11.00;99.90;;;;;;5072574;28;20035;-53
2022/12/30 01:23:33;;;;;;;3.33;2.50;;;11.10;99.90;;;;;;5072646;28;20060;-54
2022/12/30 01:26:03;;;;;;;4.15;2.45;;;11.00;99.90;;;;;;5072581;28;20102;-54
2022/12/30 01:28:35;;;;;;;3.35;2.63;;;11.00;99.90;;;;;;5072878;28;20056;-53
2022/12/30 01:31:05;;;;;;;3.80;2.13;;;11.00;99.90;;;;;;5073001;28;20067;-54
2022/12/30 01:33:31;;;;;;;2.85;1.90;;;11.00;99.90;;;;;;5072679;28;20503;-54
2022/12/30 01:35:57;;;;;;;5.70;3.83;;;11.00;99.90;;;;;;5072748;28;20028;-53
2022/12/30 01:38:22;;;;;;;6.13;2.33;;;11.10;99.90;;;;;;5073068;28;20460;-53
2022/12/30 01:40:48;;;;;;;4.25;2.65;;;11.10;99.90;;;;;;5072789;28;20052;-54
2022/12/30 01:43:16;;;;;;;4.35;2.40;;;11.10;99.90;;;;;;5072615;28;20139;-54
2022/12/30 01:45:46;;;;;;;6.88;3.63;;;11.10;99.90;;;;;;5053952;28;20039;-55
2022/12/30 01:48:31;;;;;;;6.60;2.88;;;11.10;99.90;;;;;;5013938;28;20040;-54
2022/12/30 01:51:13;;;;;;;7.97;2.47;;;11.30;99.90;;;;;;5033791;28;20512;-54
2022/12/30 01:53:44;;;;;;;6.53;2.80;;;11.30;99.90;;;;;;5034170;28;20026;-53
2022/12/30 01:56:37;;;;;;;4.72;2.35;;;11.50;99.90;;;;;;5031331;28;20025;-53
2022/12/30 01:59:09;;;;;;;5.28;2.60;;;11.50;99.90;;;;;;5033792;28;20083;-53
2022/12/30 02:01:36;;;;;;;4.10;2.33;;;11.40;99.90;;;;;;5033893;28;20087;-53
2022/12/30 02:04:23;;;;;;;5.47;3.47;;;11.10;99.90;;;;;;5033657;28;20037;-53
2022/12/30 02:06:51;;;;;;;5.60;2.92;;;11.10;99.90;;;;;;5033305;28;20042;-53
2022/12/30 02:09:18;;;;;;;5.20;2.70;;;11.00;99.90;;;;;;5033967;28;20033;-53
2022/12/30 02:11:43;;;;;;;5.78;2.97;;;10.90;99.90;;;;;;5033826;28;20485;-54
2022/12/30 02:14:10;;;;;;;4.15;2.67;;;10.90;99.90;;;;;;5000671;28;20179;-54
2022/12/30 02:16:59;;;;;;;4.60;3.20;;;10.80;99.90;;;;;;5033519;28;20025;-54
2022/12/30 02:19:58;;;;;;;3.70;2.35;;;10.80;99.90;;;;;;5058923;28;20037;-54
2022/12/30 02:23:02;;;;;;;5.38;2.45;;;10.80;99.90;;;;;;5075623;28;20645;-53
2022/12/30 02:25:43;;;;;;;3.30;2.20;;;10.80;99.90;;;;;;5075401;28;20086;-53
2022/12/30 02:28:27;;;;;;;3.78;2.85;;;10.80;99.90;;;;;;5075484;28;20056;-55
2022/12/30 02:31:05;;;;;;;4.30;2.70;;;10.80;99.90;;;;;;5075185;28;20025;-55
2022/12/30 02:33:53;;;;;;;5.72;3.40;;;10.70;99.90;;;;;;5075287;28;20020;-54
2022/12/30 02:36:31;;;;;;;7.72;3.45;;;10.70;99.90;;;;;;5075471;28;20029;-55
2022/12/30 02:39:39;;;;;;;6.22;3.53;;;10.70;99.90;;;;;;5075232;28;20380;-54
2022/12/30 02:45:33;;;;;;;4.75;2.75;;;10.70;99.90;;;;;;4974267;28;20146;-54
2022/12/30 02:48:20;;;;;;;6.20;3.22;;;10.60;99.90;;;;;;4957928;28;20045;-55
2022/12/30 02:53:34;;;;;;;8.23;4.43;;;10.60;99.90;;;;;;4974108;28;20042;-52
2022/12/30 02:56:00;;;;;;;5.70;3.97;;;10.60;99.90;;;;;;4973744;28;20609;-54
2022/12/30 02:58:31;;;;;;;4.53;3.17;;;10.70;99.90;;;;;;4958126;28;20050;-55
2022/12/30 03:04:31;;;;;;;6.70;3.37;;;10.80;99.90;;;;;;4974389;28;20074;-55
2022/12/30 03:07:15;;;;;;;4.00;2.85;;;10.80;99.90;;;;;;4973598;28;20390;-54
2022/12/30 03:12:58;;;;;;;7.10;3.90;;;11.10;99.90;;;;;;4973754;28;20057;-55
2022/12/30 03:15:32;;;;;;;6.53;3.78;;;11.10;99.90;;;;;;4973646;28;20042;-54
2022/12/30 03:17:59;;;;;;;6.13;3.13;;;11.20;99.90;;;;;;4975688;28;20030;-54
2022/12/30 03:20:26;;;;;;;9.88;5.93;;;11.20;99.90;;;;;;5042799;28;20043;-54
2022/12/30 03:28:28;;;;;;;4.40;2.97;;;11.40;99.90;;;;;;5074690;28;20082;-53
2022/12/30 03:30:59;;;;;;;4.82;3.38;;;11.30;99.90;;;;;;5074398;28;20028;-55
2022/12/30 03:33:30;;;;;;;3.05;2.40;;;11.20;99.90;;;;;;5032039;28;20519;-54
2022/12/30 03:36:05;;;;;;;4.53;2.88;;;11.10;99.90;;;;;;5032099;28;20550;-56
2022/12/30 03:38:35;;;;;;;4.60;2.88;;;11.20;99.90;;;;;;5032186;28;20033;-54
2022/12/30 03:41:03;;;;;;;5.05;3.08;;;11.10;99.90;;;;;;4998942;28;20048;-54
2022/12/30 03:43:30;;;;;;;5.53;2.60;;;11.10;99.90;;;;;;5031889;28;20556;-54
2022/12/30 03:45:56;;;;;;;4.85;2.80;;;11.10;99.90;;;;;;5031734;28;20033;-54
2022/12/30 03:48:22;;;;;;;5.68;3.50;;;11.20;99.90;;;;;;5031796;28;20038;-54
2022/12/30 03:50:47;;;;;;;6.30;3.35;;;11.10;99.90;;;;;;5031864;28;20036;-54
2022/12/30 03:53:13;;;;;;;8.20;6.65;;;11.00;99.90;;;;;;5031825;28;20049;-55
2022/12/30 03:55:39;;;;;;;5.82;3.70;;;10.90;99.90;;;;;;5031663;28;20092;-54
2022/12/30 03:58:04;;;;;;;5.97;3.80;;;10.80;99.90;;;;;;5031616;28;20037;-54
2022/12/30 04:00:32;;;;;;;3.95;2.83;;;10.70;99.90;;;;;;5031618;28;20033;-55
2022/12/30 04:02:57;;;;;;;3.83;2.20;;;10.50;99.90;;;;;;5031512;28;20048;-55
2022/12/30 04:05:23;;;;;;;4.18;2.50;;;10.30;99.90;;;;;;5070185;28;20032;-54
2022/12/30 04:07:49;;;;;;;4.43;2.58;;;10.10;99.90;;;;;;5073656;28;20472;-55
2022/12/30 04:10:15;;;;;;;3.55;2.50;;;10.10;99.90;;;;;;5073234;28;20090;-54
2022/12/30 04:12:40;;;;;;;4.65;3.20;;;10.10;99.90;;;;;;5073120;28;20048;-53
2022/12/30 04:15:06;;;;;;;3.80;2.90;;;10.20;99.90;;;;;;5073358;28;20365;-54
2022/12/30 04:17:32;;;;;;;5.13;3.28;;;10.20;99.90;;;;;;5073525;28;20032;-54
2022/12/30 04:19:58;;;;;;;5.55;3.00;;;10.30;99.90;;;;;;5073270;28;20032;-55
2022/12/30 04:22:24;;;;;;;6.45;3.80;;;10.40;99.90;;;;;;5073169;28;20134;-55
2022/12/30 04:24:50;;;;;;;7.40;2.58;;;10.50;99.90;;;;;;5073381;28;20097;-55
2022/12/30 04:27:15;;;;;;;5.40;2.65;;;10.60;99.90;;;;;;5073319;28;20043;-55
2022/12/30 04:29:41;;;;;;;3.80;2.75;;;10.70;99.90;;;;;;5073283;28;20028;-52
2022/12/30 04:32:07;;;;;;;4.50;2.70;;;10.80;99.90;;;;;;5073354;28;20024;-53
2022/12/30 04:34:32;;;;;;;3.35;2.25;;;10.80;99.90;;;;;;5073110;28;20032;-53
2022/12/30 04:36:58;;;;;;;11.43;5.68;;;10.80;99.90;;;;;;5073342;28;20060;-52
2022/12/30 04:39:24;;;;;;;12.68;7.70;;;10.80;99.90;;;;;;5073436;28;20052;-55
2022/12/30 04:41:50;;;;;;;12.60;7.35;;;10.70;99.90;;;;;;5072926;28;20036;-53
2022/12/30 04:44:15;;;;;;;11.80;7.13;;;10.40;99.90;;;;;;5073025;28;20031;-57
2022/12/30 04:46:41;;;;;;;15.50;8.30;;;10.40;99.90;;;;;;5073505;28;20039;-53
2022/12/30 04:49:07;;;;;;;14.77;8.00;;;10.30;99.90;;;;;;5072975;28;20048;-55
2022/12/30 04:51:32;;;;;;;12.40;6.60;;;10.30;99.90;;;;;;5072755;28;20094;-52
2022/12/30 04:53:58;;;;;;;14.70;8.32;;;10.20;99.90;;;;;;5072773;28;20032;-54
2022/12/30 04:56:24;;;;;;;15.13;8.00;;;10.20;99.90;;;;;;5072929;28;20032;-54
2022/12/30 04:58:50;;;;;;;16.10;8.52;;;10.10;99.90;;;;;;5073239;28;20032;-53
2022/12/30 05:01:15;;;;;;;14.68;7.35;;;10.10;99.90;;;;;;5073165;28;20040;-52
2022/12/30 05:03:41;;;;;;;11.93;5.65;;;10.10;99.90;;;;;;5073107;28;20020;-52
2022/12/30 05:06:07;;;;;;;17.80;7.50;;;10.10;99.90;;;;;;5073240;28;20039;-52
2022/12/30 05:08:33;;;;;;;10.35;6.35;;;10.10;99.90;;;;;;5073026;28;20077;-52
2022/12/30 05:10:58;;;;;;;9.93;7.25;;;10.20;99.90;;;;;;5072676;28;20035;-53
2022/12/30 05:13:24;;;;;;;8.88;6.28;;;10.10;99.90;;;;;;5067711;28;20025;-53
2022/12/30 05:15:50;;;;;;;7.15;4.72;;;10.10;99.90;;;;;;5069243;28;20028;-53
2022/12/30 05:18:15;;;;;;;13.80;8.65;;;10.10;99.90;;;;;;5070849;28;20037;-53
2022/12/30 05:20:41;;;;;;;36.92;20.15;;;10.10;99.90;;;;;;5072829;28;20066;-53
2022/12/30 05:26:13;;;;;;;13.00;8.90;;;10.00;99.90;;;;;;5061158;28;20055;-53
2022/12/30 05:26:13;;;;;;;23.30;12.65;;;10.00;99.90;;;;;;5072538;28;20033;-53
2022/12/30 05:28:39;;;;;;;12.57;7.88;;;9.90;99.90;;;;;;5076781;28;20021;-53
2022/12/30 05:31:05;;;;;;;9.02;6.78;;;9.90;99.90;;;;;;5076151;28;20475;-54
2022/12/30 05:33:31;;;;;;;7.45;6.25;;;9.90;99.90;;;;;;5076203;28;20039;-53
2022/12/30 05:35:57;;;;;;;7.28;5.80;;;9.90;99.90;;;;;;5076567;28;20036;-54
2022/12/30 05:38:23;;;;;;;7.60;4.05;;;9.90;99.90;;;;;;5076604;28;20051;-55
2022/12/30 05:40:50;;;;;;;6.00;4.13;;;9.90;99.90;;;;;;5074420;28;20039;-54
2022/12/30 05:43:16;;;;;;;6.93;4.43;;;9.90;99.90;;;;;;5076330;28;20021;-53
2022/12/30 05:45:41;;;;;;;6.22;4.05;;;9.90;99.90;;;;;;5060577;28;20039;-53
2022/12/30 05:48:07;;;;;;;6.32;4.13;;;9.80;99.90;;;;;;5055892;28;20465;-54
2022/12/30 05:50:33;;;;;;;7.20;5.13;;;9.80;99.90;;;;;;5070751;28;20037;-54
2022/12/30 05:52:58;;;;;;;6.22;4.07;;;9.70;99.90;;;;;;5056175;28;20504;-54
2022/12/30 05:55:24;;;;;;;8.27;4.50;;;9.60;99.90;;;;;;5057742;28;20380;-54
2022/12/30 05:57:50;;;;;;;7.75;4.93;;;9.60;99.90;;;;;;5057002;28;20033;-54
2022/12/30 06:00:16;;;;;;;5.78;4.35;;;9.60;99.90;;;;;;5076208;28;20028;-54
2022/12/30 06:02:42;;;;;;;7.53;5.20;;;9.70;99.90;;;;;;5075586;28;20074;-54
2022/12/30 06:05:08;;;;;;;7.72;5.15;;;9.70;99.90;;;;;;5075731;28;20077;-52
2022/12/30 06:07:34;;;;;;;9.02;5.85;;;9.70;99.90;;;;;;5075501;28;20036;-53
2022/12/30 06:10:00;;;;;;;7.82;4.90;;;9.70;99.90;;;;;;5075881;28;20054;-53
2022/12/30 06:12:25;;;;;;;11.02;5.00;;;9.70;99.90;;;;;;5075677;28;20056;-53
2022/12/30 06:14:51;;;;;;;10.93;6.40;;;9.70;99.90;;;;;;5075698;28;20024;-53
2022/12/30 06:17:17;;;;;;;12.65;7.28;;;9.70;99.90;;;;;;5076011;28;20450;-52
2022/12/30 06:19:43;;;;;;;13.43;8.80;;;9.60;99.90;;;;;;5056986;28;20033;-52
2022/12/30 06:22:09;;;;;;;14.63;8.82;;;9.60;99.90;;;;;;5052938;28;20551;-52
2022/12/30 06:24:34;;;;;;;16.20;9.80;;;9.60;99.90;;;;;;5074667;28;20028;-52
2022/12/30 06:27:00;;;;;;;18.65;11.00;;;9.50;99.90;;;;;;5074727;28;20427;-52
2022/12/30 06:29:26;;;;;;;23.63;13.98;;;;;;;;;;5075422;28;20059;-52
2022/12/30 06:31:52;;;;;;;20.70;12.45;;;9.40;99.90;;;;;;5073870;28;20032;-54
2022/12/30 06:34:17;;;;;;;13.95;9.02;;;9.40;99.90;;;;;;5074457;28;20047;-52
2022/12/30 06:36:43;;;;;;;15.45;9.43;;;9.40;99.90;;;;;;5039884;28;20083;-53
2022/12/30 06:39:09;;;;;;;13.90;9.57;;;9.40;99.90;;;;;;5075187;28;20028;-52
2022/12/30 06:41:35;;;;;;;14.73;9.05;;;9.50;99.90;;;;;;5074315;28;20036;-53
2022/12/30 06:44:01;;;;;;;15.25;11.05;;;;;;;;;;5062919;28;20028;-55
2022/12/30 06:46:27;;;;;;;14.02;10.32;;;9.70;99.90;;;;;;5072901;28;20108;-55
2022/12/30 06:48:52;;;;;;;14.77;9.60;;;9.70;99.90;;;;;;5075387;28;20120;-53
2022/12/30 06:51:18;;;;;;;14.63;8.18;;;9.60;99.90;;;;;;5054025;28;20094;-55
2022/12/30 06:53:44;;;;;;;13.43;7.97;;;9.80;99.90;;;;;;5091835;28;20116;-53
2022/12/30 06:56:10;;;;;;;13.75;7.60;;;9.80;99.90;;;;;;5054803;28;20051;-55
2022/12/30 06:58:36;;;;;;;10.10;7.18;;;9.90;99.90;;;;;;5054896;28;20108;-56
2022/12/30 07:01:01;;;;;;;13.60;7.60;;;9.90;99.90;;;;;;5054480;28;20028;-53
2022/12/30 07:03:27;;;;;;;10.50;7.65;;;10.50;99.90;;;;;;5065976;28;20032;-53
2022/12/30 07:05:53;;;;;;;9.88;7.40;;;10.90;99.90;;;;;;5056115;28;20044;-55
2022/12/30 07:08:19;;;;;;;15.20;9.63;;;;;;;;;;5074660;28;20104;-55
2022/12/30 07:10:46;;;;;;;17.92;10.98;;;;;;;;;;5074711;28;20415;-55
2022/12/30 07:13:13;;;;;;;15.35;10.15;;;13.60;99.90;;;;;;5073462;28;20032;-58
2022/12/30 07:15:39;;;;;;;15.75;10.65;;;13.70;99.90;;;;;;5072193;28;20036;-55
2022/12/30 07:18:05;;;;;;;11.25;7.85;;;14.20;99.90;;;;;;5074445;28;20086;-56
2022/12/30 07:20:31;;;;;;;9.00;6.15;;;14.70;99.90;;;;;;5072623;28;20045;-57
2022/12/30 07:22:56;;;;;;;12.27;7.65;;;14.70;99.90;;;;;;5074174;28;20040;-55
2022/12/30 07:25:22;;;;;;;8.70;6.45;;;14.90;99.90;;;;;;5074584;28;20464;-57
2022/12/30 07:27:48;;;;;;;9.48;7.30;;;14.80;99.90;;;;;;5074712;28;20024;-55
2022/12/30 07:30:14;;;;;;;10.38;7.35;;;14.40;99.90;;;;;;5054954;28;20051;-57
2022/12/30 07:32:39;;;;;;;9.93;6.88;;;14.30;99.90;;;;;;5055750;28;20036;-56
2022/12/30 07:35:07;;;;;;;9.60;7.43;;;14.40;99.90;;;;;;5068544;28;20060;-56
2022/12/30 07:37:34;;;;;;;7.53;6.68;;;14.50;99.90;;;;;;5079864;28;20040;-55
2022/12/30 07:40:00;;;;;;;8.35;6.45;;;14.80;99.90;;;;;;5071040;28;20025;-57
2022/12/30 07:42:26;;;;;;;15.45;7.07;;;15.20;99.90;;;;;;5073450;28;20541;-58
2022/12/30 07:44:52;;;;;;;14.27;11.25;;;15.20;99.90;;;;;;5073518;28;20020;-57
2022/12/30 07:47:17;;;;;;;13.05;9.82;;;16.10;99.90;;;;;;5072769;28;20031;-57
2022/12/30 07:49:43;;;;;;;16.00;10.88;;;;;;;;;;5073247;28;20021;-55
2022/12/30 07:52:10;;;;;;;14.57;10.27;;;;;;;;;;5072776;28;21048;-56
2022/12/30 07:54:36;;;;;;;12.43;9.63;;;;;;;;;;5073125;28;20024;-54
2022/12/30 07:57:02;;;;;;;15.07;11.00;;;;;;;;;;5073449;28;20027;-53
2022/12/30 07:59:28;;;;;;;13.70;11.02;;;;;;;;;;5073254;28;20052;-53
2022/12/30 08:01:53;;;;;;;11.45;9.70;;;18.30;99.90;;;;;;5070135;28;20111;-56
2022/12/30 08:04:20;;;;;;;13.27;10.05;;;;;;;;;;5072760;28;20448;-57
2022/12/30 08:06:46;;;;;;;12.00;8.65;;;;;;;;;;5073151;28;20031;-53
2022/12/30 08:09:11;;;;;;;20.00;13.48;;;21.30;95.90;;;;;;5072944;28;20108;-55
2022/12/30 08:11:37;;;;;;;20.73;15.73;;;21.40;95.80;;;;;;5069322;28;20111;-56
2022/12/30 08:14:03;;;;;;;16.33;14.48;;;20.50;95.10;;;;;;5064849;28;20032;-54
2022/12/30 08:16:29;;;;;;;8.35;7.10;;;20.60;95.60;;;;;;5072409;28;20028;-57
2022/12/30 08:18:54;;;;;;;6.35;5.60;;;20.70;94.80;;;;;;5071125;28;20035;-57
2022/12/30 08:21:21;;;;;;;8.38;6.80;;;;;;;;;;5072781;28;20036;-55
2022/12/30 08:23:47;;;;;;;8.40;6.70;;;;;;;;;;5071058;28;20025;-55
2022/12/30 08:26:15;;;;;;;8.48;6.85;;;;;;;;;;5071908;28;20032;-55
2022/12/30 08:28:41;;;;;;;9.30;7.30;;;23.30;96.80;;;;;;5071700;28;20063;-56
2022/12/30 08:31:09;;;;;;;13.95;12.45;;;22.10;91.90;;;;;;5073008;28;20029;-54
2022/12/30 08:33:35;;;;;;;13.90;9.43;;;22.20;92.50;;;;;;5073302;28;20025;-58
2022/12/30 08:36:06;;;;;;;28.70;18.33;;;23.10;91.90;;;;;;5073081;28;20028;-54
2022/12/30 08:38:34;;;;;;;47.60;27.30;;;22.60;91.80;;;;;;5038037;28;20388;-55
2022/12/30 08:41:05;;;;;;;86.45;42.67;;;22.30;91.80;;;;;;5072820;28;20490;-55
2022/12/30 08:43:31;;;;;;;44.40;29.77;;;22.20;92.00;;;;;;5067650;28;20120;-54
2022/12/30 08:45:58;;;;;;;91.10;61.85;;;21.10;92.80;;;;;;5053778;28;20112;-55
2022/12/30 08:48:23;;;;;;;93.80;65.13;;;20.50;93.80;;;;;;5071905;28;20047;-55
2022/12/30 08:50:49;;;;;;;84.25;43.20;;;20.00;94.60;;;;;;5070681;28;20032;-55
2022/12/30 08:53:15;;;;;;;81.00;44.63;;;19.30;95.50;;;;;;5072893;28;20167;-55
2022/12/30 08:55:41;;;;;;;77.32;49.28;;;19.10;95.60;;;;;;5072104;28;20028;-56
2022/12/30 08:58:07;;;;;;;102.45;64.32;;;19.00;95.80;;;;;;5072222;28;20025;-57
2022/12/30 09:00:32;;;;;;;143.38;80.65;;;18.90;96.40;;;;;;5077104;28;20024;-55
2022/12/30 09:02:58;;;;;;;109.20;68.43;;;18.90;96.50;;;;;;5076581;28;20033;-55
2022/12/30 09:05:24;;;;;;;107.18;65.53;;;19.00;96.50;;;;;;5076865;28;20029;-55
2022/12/30 09:07:49;;;;;;;88.22;57.88;;;19.00;96.50;;;;;;5076970;28;20028;-55
2022/12/30 09:10:15;;;;;;;122.85;64.95;;;19.10;96.90;;;;;;5075940;28;20032;-55
2022/12/30 09:12:41;;;;;;;145.30;83.20;;;19.60;97.00;;;;;;5076904;28;20025;-55
2022/12/30 09:15:07;;;;;;;102.38;66.15;;;19.60;97.80;;;;;;5073599;28;20028;-55
2022/12/30 09:17:33;;;;;;;76.10;52.95;;;20.50;97.30;;;;;;5070697;28;20365;-55
2022/12/30 09:19:59;;;;;;;91.43;57.47;;;20.70;96.30;;;;;;5077045;28;20031;-60
2022/12/30 09:22:25;;;;;;;94.82;64.68;;;20.40;96.20;;;;;;5058301;28;20060;-57
2022/12/30 09:24:50;;;;;;;94.05;66.05;;;19.70;96.90;;;;;;5074845;28;20032;-57
2022/12/30 09:27:16;;;;;;;84.22;65.82;;;20.00;97.20;;;;;;5076412;28;20074;-59
2022/12/30 09:29:42;;;;;;;103.25;74.28;;;20.80;96.90;;;;;;5074805;28;20399;-58
2022/12/30 09:32:08;;;;;;;94.60;70.97;;;22.30;96.80;;;;;;5075905;28;20468;-57
2022/12/30 09:34:34;;;;;;;89.70;65.72;;;;;;;;;;5076357;28;20388;-57
2022/12/30 09:37:00;;;;;;;90.22;67.13;;;;;;;;;;5076163;28;20029;-54
2022/12/30 09:39:32;;;;;;;90.72;61.70;;;;;;;;;;5072426;28;20471;-55
2022/12/30 09:45:20;;;;;;;82.55;59.83;;;27.20;91.20;;;;;;5056155;28;20554;-56
2022/12/30 09:47:50;;;;;;;77.40;49.58;;;27.50;90.20;;;;;;5056147;28;20041;-57
2022/12/30 09:50:42;;;;;;;16.73;13.57;;;28.40;89.50;;;;;;5056158;28;20025;-57
2022/12/30 09:53:54;;;;;;;40.78;28.88;;;28.40;82.80;;;;;;5055725;28;20049;-58
2022/12/30 09:56:34;;;;;;;39.70;31.25;;;29.30;81.30;;;;;;5059090;28;20023;-57
2022/12/30 09:59:21;;;;;;;34.65;19.17;;;29.20;81.70;;;;;;5075444;28;20036;-58
2022/12/30 10:01:56;;;;;;;41.85;28.75;;;29.10;80.40;;;;;;5075653;28;20029;-60
2022/12/30 10:04:24;;;;;;;16.25;11.07;;;28.40;80.10;;;;;;5075895;28;20035;-60
2022/12/30 10:07:08;;;;;;;11.00;8.05;;;27.90;78.30;;;;;;5075584;28;20024;-58
2022/12/30 10:09:58;;;;;;;11.82;10.05;;;27.50;77.90;;;;;;5052577;28;20095;-55
2022/12/30 10:12:43;;;;;;;15.13;10.68;;;26.60;77.70;;;;;;5052432;28;20025;-58
2022/12/30 10:15:43;;;;;;;20.15;10.35;;;27.00;78.40;;;;;;5050073;28;20052;-56
2022/12/30 10:18:39;;;;;;;14.05;11.10;;;26.80;77.60;;;;;;5027773;28;20084;-56
2022/12/30 10:21:14;;;;;;;28.35;12.88;;;24.20;79.40;;;;;;5052998;28;20063;-56
2022/12/30 10:24:11;;;;;;;20.05;12.43;;;23.20;81.90;;;;;;5052618;28;20048;-54
2022/12/30 10:26:44;;;;;;;19.17;11.75;;;23.10;82.50;;;;;;5011999;28;20123;-55
2022/12/30 10:29:22;;;;;;;13.60;8.65;;;23.70;83.30;;;;;;5012213;28;20030;-58
2022/12/30 10:31:50;;;;;;;15.40;9.68;;;22.90;82.00;;;;;;5012353;28;20033;-57
2022/12/30 10:34:21;;;;;;;23.75;10.63;;;22.90;82.20;;;;;;5012104;28;20124;-59
2022/12/30 10:37:00;;;;;;;12.70;9.20;;;22.70;82.80;;;;;;5012140;28;20382;-58
2022/12/30 10:39:38;;;;;;;11.85;9.73;;;22.80;82.50;;;;;;5013270;28;20045;-55
2022/12/30 10:42:28;;;;;;;15.60;9.65;;;22.60;90.20;;;;;;5031719;28;20076;-55
2022/12/30 10:45:16;;;;;;;14.27;10.88;;;22.40;89.50;;;;;;5030619;28;20033;-55
2022/12/30 10:47:45;;;;;;;30.00;12.02;;;;;;;;;;5029279;28;20037;-57
2022/12/30 10:50:32;;;;;;;31.95;11.65;;;21.80;99.40;;;;;;5030089;28;20132;-58
2022/12/30 10:53:00;;;;;;;15.98;10.90;;;21.10;86.50;;;;;;5030519;28;20049;-56
2022/12/30 10:55:27;;;;;;;16.20;10.93;;;;;;;;;;5031211;28;20030;-56
2022/12/30 10:57:59;;;;;;;16.33;11.05;;;20.60;99.90;;;;;;5031680;28;20049;-54
2022/12/30 11:00:25;;;;;;;17.80;11.00;;;;;;;;;;5031398;28;20112;-57
2022/12/30 11:02:58;;;;;;;20.27;11.65;;;20.50;99.90;;;;;;5041516;28;20056;-56
2022/12/30 11:05:38;;;;;;;28.85;18.17;;;20.50;90.90;;;;;;5073517;28;20472;-57
2022/12/30 11:08:06;;;;;;;19.00;12.88;;;20.40;88.00;;;;;;5073667;28;20032;-55
2022/12/30 11:10:32;;;;;;;20.48;13.85;;;20.10;89.40;;;;;;5072521;28;20090;-52
2022/12/30 11:15:59;;;;;;;22.73;15.73;;;;;;;;;;5053356;28;20538;-52
2022/12/30 11:18:27;;;;;;;19.23;14.85;;;;;;;;;;5053720;28;20028;-51
2022/12/30 11:20:54;;;;;;;17.90;13.68;;;;;;;;;;5052512;28;20060;-51
2022/12/30 11:23:24;;;;;;;21.77;13.32;;;;;;;;;;5053010;28;20041;-51
2022/12/30 11:25:51;;;;;;;20.92;14.00;;;;;;;;;;5052795;28;20036;-52
2022/12/30 11:28:29;;;;;;;76.05;51.40;;;;;;;;;;5061483;28;20041;-52
2022/12/30 11:31:02;;;;;;;37.00;26.20;;;;;;;;;;5048307;28;20123;-52
2022/12/30 11:33:33;;;;;;;20.58;15.98;;;;;;;;;;5016680;28;20033;-51
2022/12/30 11:36:31;;;;;;;23.13;15.82;;;18.50;99.90;;;;;;5056550;28;20036;-51
2022/12/30 11:39:23;;;;;;;21.25;15.00;;;18.60;91.60;;;;;;5034137;28;20037;-51
2022/12/30 11:41:51;;;;;;;24.25;17.85;;;;;;;;;;5048824;28;20039;-51
2022/12/30 11:44:25;;;;;;;26.67;19.48;;;18.60;99.90;;;;;;5030692;28;20037;-51
2022/12/30 11:46:57;;;;;;;23.65;18.35;;;18.60;92.70;;;;;;5045504;28;20033;-51
2022/12/30 11:49:26;;;;;;;30.45;18.90;;;18.70;92.70;;;;;;5050487;28;20032;-51
2022/12/30 11:52:14;;;;;;;28.77;19.52;;;18.70;93.00;;;;;;5050227;28;20063;-51
2022/12/30 11:54:50;;;;;;;29.67;19.00;;;18.60;93.10;;;;;;5050081;28;20028;-51
2022/12/30 11:57:24;;;;;;;24.98;19.20;;;18.40;93.70;;;;;;5050012;28;20040;-51
2022/12/30 11:59:55;;;;;;;25.58;19.90;;;18.50;93.70;;;;;;5050167;28;20037;-51
2022/12/30 12:02:31;;;;;;;19.58;15.95;;;18.60;93.60;;;;;;5065644;28;20127;-51
2022/12/30 12:04:57;;;;;;;22.52;17.05;;;18.50;93.40;;;;;;5072250;28;20037;-51
2022/12/30 12:07:29;;;;;;;33.50;23.33;;;18.40;93.70;;;;;;5072816;28;20032;-50
2022/12/30 12:09:54;;;;;;;;;;;18.30;93.40;;;;;;5073831;28;20056;-51
2022/12/30 12:12:25;;;;;;;23.48;18.38;;;18.40;93.50;;;;;;5073610;28;20267;-50
2022/12/30 12:15:23;;;;;;;20.20;16.40;;;18.30;94.10;;;;;;5073814;28;20055;-50
2022/12/30 12:17:59;;;;;;;18.52;14.82;;;18.30;94.60;;;;;;5070383;28;20369;-51
2022/12/30 12:20:32;;;;;;;20.85;15.10;;;;;;;;;;5073478;28;20031;-51
2022/12/30 12:23:07;;;;;;;21.20;14.52;;;18.00;94.70;;;;;;5073073;28;20041;-52
2022/12/30 12:25:43;;;;;;;18.70;14.35;;;17.90;95.30;;;;;;5031043;28;20033;-51
2022/12/30 12:28:11;;;;;;;18.98;13.60;;;17.80;95.10;;;;;;5031154;28;20615;-51
2022/12/30 12:30:58;;;;;;;19.83;14.10;;;17.70;94.90;;;;;;5031171;28;20052;-51
2022/12/30 12:33:36;;;;;;;23.83;15.35;;;17.50;95.40;;;;;;5014364;28;20556;-50
2022/12/30 12:36:19;;;;;;;24.10;15.38;;;17.40;95.40;;;;;;5030951;28;20037;-51
2022/12/30 12:38:45;;;;;;;21.85;17.00;;;;;;;;;;5031186;28;20036;-51
2022/12/30 12:41:21;;;;;;;23.85;17.10;;;;;;;;;;5030482;28;20033;-50
2022/12/30 12:44:05;;;;;;;25.35;18.88;;;;;;;;;;5030695;28;20041;-49
2022/12/30 12:46:54;;;;;;;28.77;21.05;;;17.50;99.90;;;;;;5017086;28;20375;-56
2022/12/30 12:49:39;;;;;;;45.00;34.20;;;17.30;99.90;;;;;;4951431;29;20047;-52
2022/12/30 12:52:27;;;;;;;37.10;29.95;;;17.10;96.20;;;;;;4943245;29;20055;-47
2022/12/30 12:55:34;;;;;;;27.08;19.35;;;17.00;96.80;;;;;;4952737;29;20062;-50
2022/12/30 12:58:11;;;;;;;27.70;19.60;;;16.90;97.00;;;;;;5009183;28;20116;-49
2022/12/30 13:01:17;;;;;;;28.10;20.90;;;16.90;97.10;;;;;;5009329;28;20085;-50
2022/12/30 13:04:13;;;;;;;32.88;24.20;;;16.80;96.80;;;;;;5006452;28;20430;-48
2022/12/30 13:07:02;;;;;;;32.63;20.23;;;;;;;;;;5008782;28;20564;-48
2022/12/30 13:09:52;;;;;;;29.20;19.92;;;16.50;97.20;;;;;;4988042;28;20522;-50
2022/12/30 13:12:29;;;;;;;35.45;22.52;;;16.50;97.50;;;;;;4987563;28;20481;-54
2022/12/30 13:15:23;;;;;;;34.80;24.60;;;16.40;97.50;;;;;;4987273;28;20110;-52
2022/12/30 13:17:50;;;;;;;30.10;22.65;;;;;;;;;;4984488;28;20041;-50
2022/12/30 13:20:27;;;;;;;28.40;20.50;;;16.20;99.90;;;;;;4989057;28;20046;-50
2022/12/30 13:22:54;;;;;;;27.23;18.77;;;16.40;99.90;;;;;;4988891;28;20038;-50
2022/12/30 13:25:27;;;;;;;24.95;17.95;;;16.50;99.90;;;;;;4992954;28;20047;-50
2022/12/30 13:27:55;;;;;;;25.50;18.17;;;16.60;99.90;;;;;;5029103;28;20033;-51
2022/12/30 13:30:23;;;;;;;22.50;16.40;;;16.70;99.90;;;;;;5029124;28;20037;-51
2022/12/30 13:33:18;;;;;;;28.65;20.05;;;16.50;99.90;;;;;;5029137;28;20034;-51
2022/12/30 13:36:02;;;;;;;33.75;24.02;;;16.60;99.90;;;;;;4968568;28;20793;-50
2022/12/30 13:38:52;;;;;;;36.42;25.25;;;16.50;99.90;;;;;;4970436;28;20069;-50
2022/12/30 13:41:21;;;;;;;33.85;23.23;;;16.50;99.90;;;;;;4986512;28;20034;-50
2022/12/30 13:43:51;;;;;;;36.80;23.90;;;16.50;99.90;;;;;;4989006;28;20042;-48
2022/12/30 13:46:24;;;;;;;29.10;21.30;;;16.60;99.90;;;;;;4990161;28;20046;-50
2022/12/30 13:48:59;;;;;;;28.40;20.48;;;16.60;99.90;;;;;;4977807;28;20145;-49
2022/12/30 13:51:27;;;;;;;38.70;25.25;;;16.70;99.90;;;;;;4993207;28;20067;-57
2022/12/30 13:54:10;;;;;;;38.42;25.05;;;16.80;99.90;;;;;;4993407;28;20046;-48
2022/12/30 13:56:40;;;;;;;34.20;24.25;;;16.80;99.90;;;;;;4993260;28;20166;-52
2022/12/30 13:59:19;;;;;;;37.40;25.48;;;16.70;99.90;;;;;;4960401;28;20031;-49
2022/12/30 14:01:45;;;;;;;41.22;28.60;;;16.90;99.90;;;;;;4958729;28;20042;-50
2022/12/30 14:04:11;;;;;;;54.10;30.75;;;16.60;99.90;;;;;;4991138;28;20117;-51
2022/12/30 14:06:53;;;;;;;38.15;28.50;;;16.70;99.90;;;;;;4991331;28;20462;-50